Time;durP1;ratioP1;P1;durP2;ratioP2;P2;SDS_P1;SDS_P2;PMS_P1;PMS_P2;Temp;Humidity;BMP_temperature;BMP_pressure;BME280_temperature;BME280_humidity;BME280_pressure;Samples;Min_cycle;Max_cycle;Signal;HPM_P1;HPM_P2
2021/05/14 00:02:07;;;;;;;14.30;12.73;;;;;;;;;;5015725;28;20046;-64
2021/05/14 00:04:53;;;;;;;13.45;11.80;;;;;;;;;;5028102;28;20416;-64
2021/05/14 00:07:38;;;;;;;13.23;11.82;;;;;;;;;;5015610;28;20045;-64
2021/05/14 00:10:24;;;;;;;11.98;10.85;;;;;;;;;;5026088;28;20420;-64
2021/05/14 00:13:09;;;;;;;13.07;11.68;;;;;;;;;;5035061;28;20120;-63
2021/05/14 00:15:55;;;;;;;12.52;10.90;;;;;;;;;;5027571;28;20049;-63
2021/05/14 00:18:39;;;;;;;12.95;10.57;;;;;;;;;;5034967;28;20054;-65
2021/05/14 00:21:27;;;;;;;10.73;9.63;;;;;;;;;;5027393;28;20109;-64
2021/05/14 00:24:12;;;;;;;12.80;11.13;;;;;;;;;;5015289;28;20401;-64
2021/05/14 00:26:57;;;;;;;12.75;10.05;;;;;;;;;;5015183;28;20516;-64
2021/05/14 00:29:43;;;;;;;12.48;11.27;;;;;;;;;;5032976;28;20550;-63
2021/05/14 00:32:28;;;;;;;14.55;9.90;;;;;;;;;;5034888;28;20416;-64
2021/05/14 00:35:14;;;;;;;12.90;11.40;;;;;;;;;;5027671;28;20097;-64
2021/05/14 00:37:59;;;;;;;17.08;11.80;;;;;;;;;;5014685;28;20053;-64
2021/05/14 00:40:44;;;;;;;12.32;11.13;;;;;;;;;;5014743;28;20046;-64
2021/05/14 00:43:30;;;;;;;13.07;11.40;;;;;;;;;;5016095;28;20042;-64
2021/05/14 00:46:15;;;;;;;14.35;12.10;;;;;;;;;;5014752;28;20053;-64
2021/05/14 00:49:01;;;;;;;14.15;11.68;;;;;;;;;;5014559;28;20508;-64
2021/05/14 00:51:46;;;;;;;11.27;10.05;;;;;;;;;;5031669;28;20607;-65
2021/05/14 00:54:31;;;;;;;14.38;11.05;;;;;;;;;;5034364;28;20522;-64
2021/05/14 00:57:17;;;;;;;9.60;8.55;;;;;;;;;;5027806;28;20389;-64
2021/05/14 01:00:03;;;;;;;11.10;9.63;;;;;;;;;;5014214;28;20389;-65
2021/05/14 01:02:51;;;;;;;12.70;10.52;;;;;;;;;;5013771;28;20075;-65
2021/05/14 01:05:36;;;;;;;11.10;9.77;;;;;;;;;;5027412;28;20048;-64
2021/05/14 01:08:21;;;;;;;10.57;9.48;;;;;;;;;;5027149;28;20053;-65
2021/05/14 01:11:07;;;;;;;11.13;10.02;;;;;;;;;;5015258;28;20467;-65
2021/05/14 01:13:53;;;;;;;10.82;9.73;;;;;;;;;;5014395;28;20056;-64
2021/05/14 01:16:38;;;;;;;11.25;9.25;;;;;;;;;;5014727;28;20464;-64
2021/05/14 01:19:24;;;;;;;11.93;9.80;;;;;;;;;;5013795;28;20416;-64
2021/05/14 01:22:09;;;;;;;15.80;11.48;;;;;;;;;;5023937;28;20049;-64
2021/05/14 01:24:55;;;;;;;14.77;13.18;;;;;;;;;;5014189;28;20042;-64
2021/05/14 01:27:40;;;;;;;13.07;11.65;;;;;;;;;;5013899;28;20054;-64
2021/05/14 01:30:26;;;;;;;12.48;11.18;;;;;;;;;;5013568;28;20046;-64
2021/05/14 01:33:11;;;;;;;14.40;12.90;;;;;;;;;;5014093;28;20049;-64
2021/05/14 01:35:56;;;;;;;15.18;13.57;;;;;;;;;;5024581;28;20072;-64
2021/05/14 01:38:42;;;;;;;14.73;12.95;;;;;;;;;;5018289;28;20049;-64
2021/05/14 01:41:27;;;;;;;12.63;11.32;;;;;;;;;;5033115;28;20480;-64
2021/05/14 01:44:14;;;;;;;13.70;12.27;;;;;;;;;;5033500;28;20053;-64
2021/05/14 01:46:59;;;;;;;14.05;12.60;;;;;;;;;;5033303;28;20045;-64
2021/05/14 01:49:45;;;;;;;14.80;12.30;;;;;;;;;;5021438;28;20133;-64
2021/05/14 01:52:30;;;;;;;14.80;13.30;;;;;;;;;;5007006;28;20439;-64
2021/05/14 01:55:16;;;;;;;14.30;12.52;;;;;;;;;;5013611;28;20041;-64
2021/05/14 01:58:02;;;;;;;15.57;13.63;;;;;;;;;;5033194;28;20050;-64
2021/05/14 02:00:47;;;;;;;16.40;13.07;;;;;;;;;;5033048;28;20045;-64
2021/05/14 02:03:32;;;;;;;14.93;13.40;;;;;;;;;;5020936;28;20196;-64
2021/05/14 02:06:18;;;;;;;14.95;13.38;;;;;;;;;;5013416;28;20049;-64
2021/05/14 02:09:04;;;;;;;13.93;12.48;;;;;;;;;;5013850;28;20046;-64
2021/05/14 02:11:50;;;;;;;13.85;12.38;;;;;;;;;;5022408;28;20452;-64
2021/05/14 02:14:35;;;;;;;14.07;12.27;;;;;;;;;;5024645;28;20502;-63
2021/05/14 02:17:20;;;;;;;15.30;13.68;;;;;;;;;;5013068;28;20504;-64
2021/05/14 02:20:07;;;;;;;14.90;13.02;;;;;;;;;;5026028;28;20057;-64
2021/05/14 02:22:52;;;;;;;14.02;12.38;;;;;;;;;;5026570;28;20034;-64
2021/05/14 02:25:37;;;;;;;17.48;13.93;;;;;;;;;;5012972;28;20061;-63
2021/05/14 02:28:23;;;;;;;15.23;13.43;;;;;;;;;;5017875;28;20045;-64
2021/05/14 02:31:08;;;;;;;15.30;13.70;;;;;;;;;;5030675;28;20045;-64
2021/05/14 02:33:53;;;;;;;15.93;13.02;;;;;;;;;;5030607;28;20077;-64
2021/05/14 02:36:39;;;;;;;17.13;14.18;;;;;;;;;;5012404;28;20053;-64
2021/05/14 02:39:24;;;;;;;15.65;13.93;;;;;;;;;;5016206;28;20132;-64
2021/05/14 02:42:09;;;;;;;17.58;14.98;;;;;;;;;;5020252;28;20054;-64
2021/05/14 02:44:55;;;;;;;17.38;14.13;;;;;;;;;;5012625;28;20049;-64
2021/05/14 02:47:41;;;;;;;17.35;15.02;;;;;;;;;;5012853;28;20060;-64
2021/05/14 02:50:26;;;;;;;18.92;14.77;;;;;;;;;;5032123;28;20199;-64
2021/05/14 02:53:12;;;;;;;17.65;15.30;;;;;;;;;;5032263;28;20049;-64
2021/05/14 02:55:57;;;;;;;17.02;14.32;;;;;;;;;;5030656;28;20045;-64
2021/05/14 02:58:43;;;;;;;17.35;14.35;;;;;;;;;;5032143;28;20530;-65
2021/05/14 03:01:29;;;;;;;20.05;15.35;;;;;;;;;;5031467;28;20072;-64
2021/05/14 03:04:16;;;;;;;16.08;13.60;;;;;;;;;;5012187;28;20073;-64
2021/05/14 03:07:01;;;;;;;15.50;12.98;;;;;;;;;;5020272;28;20041;-64
2021/05/14 03:09:47;;;;;;;16.55;13.07;;;;;;;;;;5019779;28;20073;-64
2021/05/14 03:12:32;;;;;;;19.13;15.15;;;;;;;;;;5012127;28;20046;-64
2021/05/14 03:15:17;;;;;;;18.33;15.40;;;;;;;;;;5012900;28;20056;-64
2021/05/14 03:18:03;;;;;;;18.23;14.75;;;;;;;;;;5021747;28;20058;-64
2021/05/14 03:20:49;;;;;;;16.70;13.63;;;;;;;;;;5024653;28;20137;-64
2021/05/14 03:23:34;;;;;;;14.68;12.40;;;;;;;;;;5027347;28;20038;-64
2021/05/14 03:26:19;;;;;;;14.82;13.23;;;;;;;;;;5033916;28;20046;-64
2021/05/14 03:29:05;;;;;;;15.43;12.10;;;;;;;;;;5029752;28;20041;-63
2021/05/14 03:31:50;;;;;;;14.77;12.90;;;;;;;;;;5035258;28;20041;-64
2021/05/14 03:34:35;;;;;;;15.65;12.88;;;;;;;;;;5015910;28;20108;-64
2021/05/14 03:37:20;;;;;;;15.93;12.38;;;;;;;;;;5015630;28;20057;-65
2021/05/14 03:43:21;;;;;;;13.00;11.32;;;;;;;;;;5030316;28;20054;-64
2021/05/14 03:46:06;;;;;;;13.75;10.15;;;;;;;;;;5031140;28;20069;-64
2021/05/14 03:48:52;;;;;;;9.63;7.60;;;;;;;;;;5015843;28;20102;-64
2021/05/14 03:51:40;;;;;;;12.85;7.97;;;;;;;;;;5015446;28;20683;-64
2021/05/14 03:54:26;;;;;;;9.65;7.13;;;;;;;;;;5024741;28;20140;-64
2021/05/14 03:57:12;;;;;;;9.25;7.30;;;;;;;;;;5035456;28;20049;-64
2021/05/14 03:59:57;;;;;;;9.80;6.85;;;;;;;;;;5030005;28;20050;-64
2021/05/14 04:02:43;;;;;;;9.25;7.32;;;;;;;;;;5015383;28;20046;-64
2021/05/14 04:05:29;;;;;;;8.85;7.95;;;;;;;;;;5015606;28;20120;-65
2021/05/14 04:08:15;;;;;;;10.35;7.78;;;;;;;;;;5016661;28;20484;-64
2021/05/14 04:12:05;;;;;;;9.75;8.43;;;;;;;;;;5015272;28;20480;-65
2021/05/14 04:17:10;;;;;;;9.68;8.32;;;;;;;;;;5034949;28;20049;-64
2021/05/14 04:19:58;;;;;;;19.60;9.13;;;;;;;;;;5034605;28;20045;-64
2021/05/14 04:22:43;;;;;;;10.75;9.07;;;;;;;;;;5015125;28;20059;-64
2021/05/14 04:25:30;;;;;;;11.50;8.50;;;;;;;;;;5021955;28;20045;-64
2021/05/14 04:28:16;;;;;;;12.60;8.32;;;;;;;;;;5030188;28;20046;-64
2021/05/14 04:31:01;;;;;;;12.82;9.13;;;;;;;;;;5026639;28;20419;-64
2021/05/14 04:33:46;;;;;;;13.30;9.32;;;;;;;;;;5034720;28;20180;-64
2021/05/14 04:36:32;;;;;;;10.68;8.85;;;;;;;;;;5000001;28;20056;-64
2021/05/14 04:39:17;;;;;;;16.88;10.40;;;;;;;;;;5000016;28;20393;-65
2021/05/14 04:42:02;;;;;;;14.55;9.63;;;;;;;;;;5014759;28;20061;-64
2021/05/14 04:44:47;;;;;;;10.02;8.18;;;;;;;;;;5015922;28;20046;-64
2021/05/14 04:47:34;;;;;;;11.57;8.10;;;;;;;;;;5034083;28;20052;-64
2021/05/14 04:50:20;;;;;;;11.25;7.63;;;;;;;;;;5032556;28;20508;-64
2021/05/14 04:53:06;;;;;;;14.02;9.45;;;;;;;;;;5034533;28;20072;-64
2021/05/14 04:55:51;;;;;;;10.88;8.10;;;;;;;;;;5026500;28;20104;-64
2021/05/14 04:58:36;;;;;;;14.95;8.75;;;;;;;;;;5014471;28;20041;-63
2021/05/14 05:01:22;;;;;;;12.50;7.90;;;;;;;;;;5014111;28;20591;-64
2021/05/14 05:04:08;;;;;;;8.60;7.70;;;;;;;;;;5014278;28;20042;-64
2021/05/14 05:06:54;;;;;;;9.77;7.95;;;;;;;;;;5018767;28;20073;-63
2021/05/14 05:09:39;;;;;;;12.30;7.43;;;;;;;;;;5014170;28;20054;-63
2021/05/14 05:12:24;;;;;;;12.43;6.95;;;;;;;;;;5017425;28;20042;-64
2021/05/14 05:15:10;;;;;;;16.15;7.40;;;;;;;;;;5033879;28;20050;-63
2021/05/14 05:17:56;;;;;;;14.70;8.35;;;;;;;;;;5033760;28;20045;-63
2021/05/14 05:20:41;;;;;;;11.57;8.18;;;;;;;;;;5018893;28;20049;-63
2021/05/14 05:23:27;;;;;;;14.40;7.90;;;;;;;;;;5013890;28;20045;-64
2021/05/14 05:26:12;;;;;;;12.35;8.15;;;;;;;;;;5002341;28;20093;-63
2021/05/14 05:28:57;;;;;;;12.65;8.38;;;;;;;;;;5021246;28;20046;-63
2021/05/14 05:31:43;;;;;;;16.35;8.93;;;;;;;;;;5021324;28;20050;-63
2021/05/14 05:34:28;;;;;;;11.13;8.38;;;;;;;;;;5024106;28;20057;-63
2021/05/14 05:37:13;;;;;;;12.82;8.68;;;;;;;;;;5031546;28;20144;-63
2021/05/14 05:39:58;;;;;;;14.48;9.00;;;;;;;;;;5098859;22;20054;-61
2021/05/14 05:42:44;;;;;;;13.95;8.80;;;;;;;;;;5093185;28;20051;-61
2021/05/14 05:45:29;;;;;;;16.23;8.43;;;;;;;;;;5085563;28;20448;-61
2021/05/14 05:48:15;;;;;;;12.73;7.80;;;;;;;;;;5093156;28;20520;-61
2021/05/14 05:51:00;;;;;;;13.30;7.88;;;;;;;;;;5071620;28;20040;-60
2021/05/14 05:53:45;;;;;;;16.45;9.63;;;;;;;;;;5073253;28;20067;-60
2021/05/14 05:56:32;;;;;;;15.05;9.32;;;;;;;;;;5073134;28;20472;-62
2021/05/14 05:59:18;;;;;;;12.35;8.68;;;;;;;;;;5071711;28;20057;-63
2021/05/14 06:02:04;;;;;;;14.80;9.55;;;;;;;;;;5073192;28;20530;-63
2021/05/14 06:04:50;;;;;;;12.13;8.07;;;;;;;;;;5072908;28;20055;-63
2021/05/14 06:07:35;;;;;;;11.30;6.60;;;;;;;;;;5072818;28;20044;-63
2021/05/14 06:10:21;;;;;;;15.45;7.60;;;;;;;;;;5072604;28;20066;-63
2021/05/14 06:13:06;;;;;;;8.80;6.55;;;;;;;;;;5073003;28;20178;-64
2021/05/14 06:15:53;;;;;;;14.18;7.88;;;;;;;;;;5072356;28;20036;-63
2021/05/14 06:18:41;;;;;;;10.82;6.95;;;;;;;;;;5070437;28;20043;-63
2021/05/14 06:21:29;;;;;;;12.23;7.07;;;;;;;;;;5071661;28;20499;-63
2021/05/14 06:24:15;;;;;;;8.88;6.97;;;;;;;;;;5072273;28;20051;-63
2021/05/14 06:27:00;;;;;;;12.55;6.85;;;;;;;;;;5072638;28;20044;-63
2021/05/14 06:29:46;;;;;;;16.42;8.82;;;;;;;;;;5071286;28;20037;-63
2021/05/14 06:32:31;;;;;;;11.60;8.20;;;;;;;;;;5072385;28;20098;-63
2021/05/14 06:35:17;;;;;;;11.02;7.25;;;;;;;;;;5072541;28;20422;-64
2021/05/14 06:38:02;;;;;;;13.88;7.78;;;;;;;;;;5072471;28;20044;-63
2021/05/14 06:40:47;;;;;;;13.13;7.45;;;;;;;;;;5070956;28;20041;-63
2021/05/14 06:43:33;;;;;;;10.65;6.43;;;;;;;;;;5072195;28;20049;-64
2021/05/14 06:46:19;;;;;;;14.90;7.20;;;;;;;;;;5071073;28;20051;-63
2021/05/14 06:49:06;;;;;;;10.02;5.95;;;;;;;;;;5072157;28;20044;-63
2021/05/14 06:51:52;;;;;;;12.75;5.90;;;;;;;;;;5070167;28;20048;-64
2021/05/14 06:54:37;;;;;;;11.73;6.22;;;;;;;;;;5071774;28;20167;-63
2021/05/14 06:57:23;;;;;;;8.70;5.45;;;;;;;;;;5072259;28;20048;-64
2021/05/14 07:00:08;;;;;;;10.27;5.40;;;;;;;;;;5071100;28;20044;-63
2021/05/14 07:02:53;;;;;;;10.05;5.63;;;;;;;;;;5070982;28;20049;-63
2021/05/14 07:05:39;;;;;;;9.98;5.70;;;;;;;;;;5072234;28;20094;-65
2021/05/14 07:08:24;;;;;;;10.80;6.15;;;;;;;;;;5072398;28;20048;-63
2021/05/14 07:11:11;;;;;;;11.63;6.78;;;;;;;;;;5071637;28;20072;-64
2021/05/14 07:13:56;;;;;;;9.75;5.28;;;;;;;;;;5070177;28;20047;-64
2021/05/14 07:16:43;;;;;;;11.38;6.90;;;;;;;;;;5071945;28;20055;-63
2021/05/14 07:19:28;;;;;;;11.85;6.03;;;;;;;;;;5071607;28;20133;-64
2021/05/14 07:22:14;;;;;;;10.75;6.03;;;;;;;;;;5070792;28;20049;-63
2021/05/14 07:25:00;;;;;;;9.38;6.00;;;;;;;;;;5071717;28;20072;-63
2021/05/14 07:27:45;;;;;;;9.32;6.10;;;;;;;;;;5071868;28;20171;-63
2021/05/14 07:30:30;;;;;;;11.55;5.88;;;;;;;;;;5071429;28;20045;-63
2021/05/14 07:33:16;;;;;;;11.35;5.85;;;;;;;;;;5070843;28;20045;-63
2021/05/14 07:36:01;;;;;;;10.02;5.90;;;;;;;;;;5071733;28;20433;-64
2021/05/14 07:38:46;;;;;;;10.75;6.07;;;;;;;;;;5071471;28;20068;-64
2021/05/14 07:41:32;;;;;;;8.63;5.55;;;;;;;;;;5071380;28;20045;-64
2021/05/14 07:44:34;;;;;;;13.30;6.10;;;;;;;;;;5071466;28;20391;-64
2021/05/14 07:47:19;;;;;;;10.63;6.47;;;;;;;;;;5071576;28;20126;-63
2021/05/14 07:50:05;;;;;;;10.13;6.38;;;;;;;;;;5071658;28;20080;-63
2021/05/14 07:52:50;;;;;;;9.52;6.25;;;;;;;;;;5070358;28;20037;-63
2021/05/14 07:55:41;;;;;;;13.00;6.10;;;;;;;;;;5071418;28;20048;-64
2021/05/14 07:58:34;;;;;;;9.82;6.03;;;;;;;;;;5057594;28;20052;-64
2021/05/14 08:01:20;;;;;;;9.93;5.80;;;;;;;;;;5071206;28;20041;-63
2021/05/14 08:04:08;;;;;;;12.48;5.50;;;;;;;;;;5070555;28;20041;-63
2021/05/14 08:06:53;;;;;;;14.05;6.95;;;;;;;;;;5071576;28;20061;-63
2021/05/14 08:09:41;;;;;;;10.95;6.22;;;;;;;;;;5055950;28;20072;-64
2021/05/14 08:12:26;;;;;;;12.32;6.35;;;;;;;;;;5073604;28;20067;-63
2021/05/14 08:15:20;;;;;;;10.25;6.30;;;;;;;;;;5075091;28;20049;-63
2021/05/14 08:18:05;;;;;;;11.63;6.00;;;;;;;;;;5075065;28;20049;-64
2021/05/14 08:20:50;;;;;;;11.02;6.75;;;;;;;;;;5074712;28;20033;-63
2021/05/14 08:23:37;;;;;;;12.65;6.70;;;;;;;;;;5074322;28;20051;-64
2021/05/14 08:26:22;;;;;;;11.18;6.38;;;;;;;;;;5074922;28;20048;-63
2021/05/14 08:29:10;;;;;;;11.57;6.60;;;;;;;;;;5074659;28;20053;-63
2021/05/14 08:31:55;;;;;;;12.23;7.45;;;;;;;;;;5074848;28;20055;-63
2021/05/14 08:34:47;;;;;;;14.70;7.23;;;;;;;;;;5073608;28;20194;-64
2021/05/14 08:37:33;;;;;;;11.23;5.93;;;;;;;;;;5074433;28;20057;-63
2021/05/14 08:40:18;;;;;;;8.75;5.88;;;;;;;;;;5074221;28;20045;-64
2021/05/14 08:43:07;;;;;;;8.10;6.10;;;;;;;;;;5074732;28;20049;-64
2021/05/14 08:45:53;;;;;;;7.80;6.38;;;;;;;;;;5073202;28;20056;-63
2021/05/14 08:48:49;;;;;;;11.45;6.95;;;;;;;;;;5074195;28;20481;-63
2021/05/14 08:51:37;;;;;;;16.52;7.40;;;;;;;;;;5074078;28;20169;-63
2021/05/14 08:54:23;;;;;;;14.52;7.93;;;;;;;;;;5073596;28;20055;-63
2021/05/14 08:57:08;;;;;;;14.75;8.07;;;;;;;;;;5059286;28;20044;-63
2021/05/14 08:59:53;;;;;;;15.90;7.50;;;;;;;;;;5073851;28;20050;-64
2021/05/14 09:02:41;;;;;;;12.63;7.93;;;;;;;;;;5074448;28;20040;-64
2021/05/14 09:05:27;;;;;;;15.27;9.38;;;;;;;;;;5073224;28;20040;-63
2021/05/14 09:08:13;;;;;;;17.42;8.88;;;;;;;;;;5074271;28;20094;-63
2021/05/14 09:10:59;;;;;;;18.63;9.80;;;;;;;;;;5073648;28;20048;-63
2021/05/14 09:13:44;;;;;;;17.30;9.52;;;;;;;;;;5073975;28;20041;-63
2021/05/14 09:16:49;;;;;;;17.38;9.95;;;;;;;;;;5058080;28;20044;-64
2021/05/14 09:19:35;;;;;;;21.42;10.90;;;;;;;;;;5073594;28;20383;-64
2021/05/14 09:22:21;;;;;;;15.65;9.32;;;;;;;;;;5073887;28;20052;-64
2021/05/14 09:25:09;;;;;;;21.27;10.52;;;;;;;;;;5073386;28;20406;-63
2021/05/14 09:27:54;;;;;;;18.50;10.18;;;;;;;;;;5073912;28;20044;-63
2021/05/14 09:30:41;;;;;;;17.27;9.20;;;;;;;;;;5072401;28;20044;-64
2021/05/14 09:33:26;;;;;;;23.23;9.48;;;;;;;;;;5058596;28;20070;-64
2021/05/14 09:36:13;;;;;;;16.30;9.77;;;;;;;;;;5073509;28;20041;-63
2021/05/14 09:39:05;;;;;;;13.65;9.02;;;;;;;;;;5058378;28;21927;-63
2021/05/14 09:41:50;;;;;;;18.43;9.37;;;;;;;;;;5072329;28;20055;-64
2021/05/14 09:44:35;;;;;;;13.75;8.55;;;;;;;;;;5073156;28;20051;-63
2021/05/14 09:47:31;;;;;;;16.83;9.88;;;;;;;;;;5073137;28;20052;-63
2021/05/14 09:50:29;;;;;;;12.90;9.27;;;;;;;;;;5071400;28;20118;-63
2021/05/14 09:53:15;;;;;;;14.52;9.85;;;;;;;;;;5073054;28;20048;-63
2021/05/14 09:56:14;;;;;;;17.48;10.13;;;;;;;;;;5073152;28;20579;-63
2021/05/14 09:59:00;;;;;;;14.00;9.73;;;;;;;;;;5073094;28;20048;-64
2021/05/14 10:01:45;;;;;;;16.80;10.30;;;;;;;;;;5071645;28;20534;-64
2021/05/14 10:04:35;;;;;;;22.38;11.00;;;;;;;;;;5072885;28;20135;-63
2021/05/14 10:07:20;;;;;;;17.92;11.07;;;;;;;;;;5058508;28;20094;-63
2021/05/14 10:10:11;;;;;;;13.88;10.07;;;;;;;;;;5072663;28;20059;-63
2021/05/14 10:12:57;;;;;;;23.98;11.10;;;;;;;;;;5071908;28;20048;-63
2021/05/14 10:15:42;;;;;;;15.27;9.93;;;;;;;;;;5057585;28;20056;-64
2021/05/14 10:18:29;;;;;;;18.20;9.27;;;;;;;;;;5073007;28;20049;-64
2021/05/14 10:21:14;;;;;;;15.75;10.57;;;;;;;;;;5056327;28;20053;-63
2021/05/14 10:23:59;;;;;;;13.20;9.00;;;;;;;;;;5072685;28;20137;-63
2021/05/14 10:26:44;;;;;;;13.13;9.52;;;;;;;;;;5072599;28;20558;-63
2021/05/14 10:29:37;;;;;;;14.02;9.73;;;;;;;;;;5072111;28;20411;-63
2021/05/14 10:32:40;;;;;;;16.33;9.90;;;;;;;;;;5071560;28;20047;-63
2021/05/14 10:35:29;;;;;;;17.35;10.63;;;;;;;;;;5069294;28;20411;-64
2021/05/14 10:38:14;;;;;;;17.83;10.95;;;;;;;;;;5072340;28;20564;-64
2021/05/14 10:41:00;;;;;;;17.77;12.20;;;;;;;;;;5072165;28;20433;-63
2021/05/14 10:44:02;;;;;;;21.45;12.90;;;;;;;;;;5056122;28;20094;-63
2021/05/14 10:46:47;;;;;;;17.40;11.75;;;;;;;;;;5072100;28;20044;-63
2021/05/14 10:49:43;;;;;;;20.55;10.90;;;;;;;;;;5071837;28;20572;-63
2021/05/14 10:52:30;;;;;;;13.95;9.98;;;;;;;;;;5071311;28;20080;-63
2021/05/14 10:55:31;;;;;;;21.90;12.00;;;;;;;;;;5072325;28;20415;-63
2021/05/14 10:58:35;;;;;;;18.52;10.88;;;;;;;;;;5072031;28;20049;-63
2021/05/14 11:01:49;;;;;;;17.05;10.75;;;;;;;;;;5070473;28;20044;-63
2021/05/14 11:04:41;;;;;;;19.40;12.77;;;;;;;;;;5068569;28;20055;-63
2021/05/14 11:07:33;;;;;;;16.02;10.73;;;;;;;;;;5071904;28;20052;-63
2021/05/14 11:10:26;;;;;;;17.45;10.68;;;;;;;;;;5070926;28;20052;-64
2021/05/14 11:13:45;;;;;;;11.77;10.10;;;;;;;;;;5072049;28;20129;-63
2021/05/14 11:16:32;;;;;;;14.68;9.23;;;;;;;;;;5038703;28;20049;-64
2021/05/14 11:19:29;;;;;;;16.90;10.88;;;;;;;;;;5071915;28;20059;-63
2021/05/14 11:22:16;;;;;;;13.68;10.95;;;;;;;;;;5070212;28;20526;-64
2021/05/14 11:25:01;;;;;;;14.30;9.68;;;;;;;;;;5071752;28;20052;-63
2021/05/14 11:27:51;;;;;;;14.93;9.02;;;;;;;;;;5071839;28;20048;-63
2021/05/14 11:30:36;;;;;;;15.65;7.80;;;;;;;;;;5070505;28;20051;-64
2021/05/14 11:33:25;;;;;;;10.48;8.25;;;;;;;;;;5056987;28;20051;-64
2021/05/14 11:36:12;;;;;;;13.48;7.72;;;;;;;;;;5071791;28;20052;-65
2021/05/14 11:38:59;;;;;;;11.82;7.80;;;;;;;;;;5072114;28;20044;-63
2021/05/14 11:41:45;;;;;;;16.38;8.70;;;;;;;;;;5071562;28;20399;-64
2021/05/14 11:44:30;;;;;;;11.38;7.60;;;;;;;;;;5056606;28;20054;-64
2021/05/14 11:47:18;;;;;;;14.85;7.22;;;;;;;;;;5059420;28;20049;-64
2021/05/14 11:50:03;;;;;;;13.43;7.70;;;;;;;;;;5059202;28;20049;-64
2021/05/14 11:52:49;;;;;;;10.88;6.95;;;;;;;;;;5075587;28;20045;-63
2021/05/14 11:55:35;;;;;;;9.38;6.13;;;;;;;;;;5075394;28;20060;-63
2021/05/14 11:58:20;;;;;;;9.10;6.05;;;;;;;;;;5075701;28;20052;-63
2021/05/14 12:01:07;;;;;;;14.95;7.25;;;;;;;;;;5074729;28;20052;-64
2021/05/14 12:03:58;;;;;;;13.82;6.60;;;;;;;;;;5074973;28;20040;-63
2021/05/14 12:06:47;;;;;;;10.02;6.38;;;;;;;;;;5075096;28;20106;-63
2021/05/14 12:09:32;;;;;;;10.07;7.30;;;;;;;;;;5075391;28;20048;-63
2021/05/14 12:12:21;;;;;;;12.98;6.78;;;;;;;;;;5073775;28;20144;-63
2021/05/14 12:15:09;;;;;;;9.07;6.78;;;;;;;;;;5075022;28;20044;-63
2021/05/14 12:17:58;;;;;;;10.93;6.50;;;;;;;;;;5075046;28;20044;-63
2021/05/14 12:20:43;;;;;;;12.68;6.28;;;;;;;;;;5073936;28;20055;-64
2021/05/14 12:23:29;;;;;;;12.95;6.53;;;;;;;;;;5059960;28;20121;-63
2021/05/14 12:26:14;;;;;;;11.32;6.78;;;;;;;;;;5074761;28;20131;-64
2021/05/14 12:28:59;;;;;;;11.07;6.22;;;;;;;;;;5074855;28;20494;-63
2021/05/14 12:31:44;;;;;;;15.38;7.40;;;;;;;;;;5073928;28;20040;-63
2021/05/14 12:34:30;;;;;;;9.80;5.13;;;;;;;;;;5074708;28;20149;-63
2021/05/14 12:37:15;;;;;;;8.77;4.75;;;;;;;;;;5074680;28;20048;-63
2021/05/14 12:40:00;;;;;;;9.25;5.00;;;;;;;;;;5059188;28;20506;-64
2021/05/14 12:42:45;;;;;;;14.63;6.45;;;;;;;;;;5073846;28;20115;-63
2021/05/14 12:45:31;;;;;;;10.95;5.70;;;;;;;;;;5074439;28;20052;-63
2021/05/14 12:48:23;;;;;;;7.80;5.00;;;;;;;;;;5074537;28;20131;-63
2021/05/14 12:51:08;;;;;;;10.80;6.65;;;;;;;;;;5074212;28;20040;-65
2021/05/14 12:53:56;;;;;;;9.30;5.15;;;;;;;;;;5072366;28;20120;-64
2021/05/14 12:56:42;;;;;;;11.90;5.57;;;;;;;;;;5074196;28;20052;-64
2021/05/14 12:59:28;;;;;;;10.55;5.00;;;;;;;;;;5073036;28;20048;-65
2021/05/14 13:02:18;;;;;;;13.07;5.93;;;;;;;;;;5073369;28;20053;-64
2021/05/14 13:05:05;;;;;;;7.78;4.68;;;;;;;;;;5074346;28;20044;-64
2021/05/14 13:07:59;;;;;;;10.77;5.03;;;;;;;;;;5074457;28;20131;-64
2021/05/14 13:10:45;;;;;;;9.00;4.90;;;;;;;;;;5073968;28;20048;-64
2021/05/14 13:13:35;;;;;;;10.93;5.38;;;;;;;;;;5072883;28;20498;-63
2021/05/14 13:16:21;;;;;;;7.72;5.28;;;;;;;;;;5073877;28;20049;-64
2021/05/14 13:19:06;;;;;;;9.70;5.55;;;;;;;;;;5073986;28;20135;-64
2021/05/14 13:21:51;;;;;;;8.88;6.40;;;;;;;;;;5073810;28;20562;-65
2021/05/14 13:24:37;;;;;;;12.48;6.20;;;;;;;;;;5072713;28;20072;-64
2021/05/14 13:27:22;;;;;;;9.93;6.43;;;;;;;;;;5073493;28;20045;-63
2021/05/14 13:30:09;;;;;;;10.93;5.90;;;;;;;;;;5072991;28;20123;-64
2021/05/14 13:32:54;;;;;;;10.77;6.82;;;;;;;;;;5071192;28;20040;-64
2021/05/14 13:35:39;;;;;;;8.93;5.47;;;;;;;;;;5071694;28;20052;-64
2021/05/14 13:38:25;;;;;;;15.65;6.75;;;;;;;;;;5073551;28;20115;-63
2021/05/14 13:41:10;;;;;;;12.02;6.35;;;;;;;;;;5073235;28;20072;-63
2021/05/14 13:43:56;;;;;;;9.18;5.80;;;;;;;;;;5072543;28;20036;-64
2021/05/14 13:46:42;;;;;;;9.95;6.28;;;;;;;;;;5073414;28;20072;-63
2021/05/14 13:49:27;;;;;;;9.10;5.85;;;;;;;;;;5072952;28;20048;-65
2021/05/14 13:52:12;;;;;;;11.43;5.82;;;;;;;;;;5073213;28;20501;-65
2021/05/14 13:54:57;;;;;;;14.93;8.35;;;;;;;;;;5072042;28;20056;-65
2021/05/14 13:57:43;;;;;;;14.60;5.95;;;;;;;;;;5069149;28;20532;-65
2021/05/14 14:00:28;;;;;;;9.57;5.97;;;;;;;;;;5072122;28;20131;-65
2021/05/14 14:03:13;;;;;;;10.52;6.03;;;;;;;;;;5070642;28;20127;-64
2021/05/14 14:05:59;;;;;;;14.93;6.80;;;;;;;;;;5070353;28;20036;-63
2021/05/14 14:08:46;;;;;;;9.73;5.68;;;;;;;;;;5072770;28;20045;-63
2021/05/14 14:11:31;;;;;;;10.57;5.85;;;;;;;;;;5072686;28;20048;-64
2021/05/14 14:14:17;;;;;;;12.98;5.78;;;;;;;;;;5072789;28;20040;-63
2021/05/14 14:17:02;;;;;;;15.70;5.97;;;;;;;;;;5072365;28;20545;-64
2021/05/14 14:19:47;;;;;;;10.95;5.30;;;;;;;;;;5072485;28;20044;-63
2021/05/14 14:22:33;;;;;;;8.57;5.50;;;;;;;;;;5057554;28;20048;-64
2021/05/14 14:25:18;;;;;;;10.10;5.55;;;;;;;;;;5071615;28;20654;-63
2021/05/14 14:28:03;;;;;;;12.15;5.15;;;;;;;;;;5071475;28;20037;-64
2021/05/14 14:30:49;;;;;;;8.93;4.85;;;;;;;;;;5072253;28;20041;-64
2021/05/14 14:33:34;;;;;;;7.72;5.22;;;;;;;;;;5072484;28;20515;-64
2021/05/14 14:36:19;;;;;;;14.57;5.88;;;;;;;;;;5071665;28;20059;-64
2021/05/14 14:39:05;;;;;;;9.80;5.47;;;;;;;;;;5072463;28;20044;-64
2021/05/14 14:41:50;;;;;;;12.07;5.10;;;;;;;;;;5071355;28;20044;-64
2021/05/14 14:44:35;;;;;;;7.30;4.72;;;;;;;;;;5072264;28;20045;-64
2021/05/14 14:47:21;;;;;;;8.45;5.38;;;;;;;;;;5071700;28;20052;-65
2021/05/14 14:50:07;;;;;;;9.65;5.13;;;;;;;;;;5071952;28;20115;-65
2021/05/14 14:52:52;;;;;;;8.35;5.25;;;;;;;;;;5072449;28;20124;-65
2021/05/14 14:55:37;;;;;;;10.77;4.75;;;;;;;;;;5071263;28;20036;-65
2021/05/14 14:58:23;;;;;;;7.75;4.25;;;;;;;;;;5072126;28;20048;-63
2021/05/14 15:01:08;;;;;;;8.35;4.43;;;;;;;;;;5070870;28;20036;-64
2021/05/14 15:03:54;;;;;;;8.75;3.83;;;;;;;;;;5072186;28;20049;-63
2021/05/14 15:06:39;;;;;;;8.32;4.63;;;;;;;;;;5071174;28;20071;-63
2021/05/14 15:09:24;;;;;;;8.20;4.47;;;;;;;;;;5071815;28;20044;-64
2021/05/14 15:12:10;;;;;;;6.65;4.18;;;;;;;;;;5072105;28;20044;-63
2021/05/14 15:14:55;;;;;;;9.57;5.05;;;;;;;;;;5071142;28;20045;-63
2021/05/14 15:17:42;;;;;;;9.73;5.03;;;;;;;;;;5070473;28;20040;-64
2021/05/14 15:20:28;;;;;;;10.18;4.70;;;;;;;;;;5067348;28;20048;-64
2021/05/14 15:23:18;;;;;;;10.07;4.95;;;;;;;;;;5066044;28;20131;-63
2021/05/14 15:26:04;;;;;;;10.57;5.07;;;;;;;;;;5053855;28;20045;-63
2021/05/14 15:28:49;;;;;;;8.68;3.83;;;;;;;;;;5071433;28;20068;-63
2021/05/14 15:31:34;;;;;;;9.68;4.65;;;;;;;;;;5068707;28;20041;-63
2021/05/14 15:34:20;;;;;;;8.77;4.70;;;;;;;;;;5071062;28;20044;-64
2021/05/14 15:37:05;;;;;;;6.78;4.28;;;;;;;;;;5070761;28;20048;-63
2021/05/14 15:39:51;;;;;;;7.97;5.15;;;;;;;;;;5070659;28;20115;-64
2021/05/14 15:42:37;;;;;;;8.00;4.57;;;;;;;;;;5063414;28;20033;-63
2021/05/14 15:45:22;;;;;;;6.25;4.43;;;;;;;;;;5055946;28;20048;-64
2021/05/14 15:48:14;;;;;;;8.35;4.60;;;;;;;;;;5051655;28;20056;-64
2021/05/14 15:50:59;;;;;;;7.88;5.13;;;;;;;;;;5050985;28;20041;-64
2021/05/14 15:53:45;;;;;;;10.68;5.10;;;;;;;;;;5051534;28;20152;-64
2021/05/14 15:56:30;;;;;;;7.65;4.50;;;;;;;;;;5055484;28;20044;-64
2021/05/14 15:59:15;;;;;;;7.60;4.25;;;;;;;;;;5071330;28;20475;-64
2021/05/14 16:02:00;;;;;;;7.75;5.55;;;;;;;;;;5071287;28;20115;-64
2021/05/14 16:04:46;;;;;;;7.07;5.18;;;;;;;;;;5071500;28;20095;-65
2021/05/14 16:07:31;;;;;;;7.38;4.85;;;;;;;;;;5070415;28;20111;-64
2021/05/14 16:10:17;;;;;;;6.25;4.05;;;;;;;;;;5071232;28;20127;-64
2021/05/14 16:13:02;;;;;;;8.23;5.45;;;;;;;;;;5071319;28;20181;-65
2021/05/14 16:15:48;;;;;;;6.28;4.32;;;;;;;;;;5071288;28;20113;-65
2021/05/14 16:18:33;;;;;;;8.13;5.70;;;;;;;;;;5070208;28;20044;-65
2021/05/14 16:21:18;;;;;;;8.50;5.07;;;;;;;;;;5068705;28;20045;-64
2021/05/14 16:24:04;;;;;;;5.68;4.88;;;;;;;;;;5069154;28;20064;-64
2021/05/14 16:26:49;;;;;;;7.55;5.60;;;;;;;;;;5068590;28;20040;-64
2021/05/14 16:29:38;;;;;;;9.57;6.45;;;;;;;;;;5054172;28;20041;-64